Time;durP1;ratioP1;P1;durP2;ratioP2;P2;SDS_P1;SDS_P2;PMS_P1;PMS_P2;Temp;Humidity;BMP_temperature;BMP_pressure;BME280_temperature;BME280_humidity;BME280_pressure;Samples;Min_cycle;Max_cycle;Signal;HPM_P1;HPM_P2
2023/09/06 03:34:22;;;;;;;;;20.00;18.00;;;;;;;;6228193;22;46226;-84
2023/09/06 03:36:51;;;;;;;;;22.33;18.67;;;;;;;;6308256;22;45286;-83
2023/09/06 03:39:19;;;;;;;;;20.00;17.67;;;;;;;;6309017;22;45163;-82
2023/09/06 03:41:46;;;;;;;;;20.33;18.33;;;;;;;;6309455;22;45320;-84
2023/09/06 03:44:12;;;;;;;;;22.33;19.33;;;;;;;;6309241;22;45282;-85
2023/09/06 03:46:37;;;;;;;;;14.33;14.33;;;;;;;;6308648;22;45314;-86
2023/09/06 03:49:06;;;;;;;;;18.33;17.00;;;;;;;;6308680;22;45125;-84
2023/09/06 03:51:32;;;;;;;;;16.00;14.33;;;;;;;;6306662;22;45382;-83
2023/09/06 03:53:59;;;;;;;;;17.67;16.67;;;;;;;;6279391;22;45405;-84
2023/09/06 03:56:24;;;;;;;;;21.33;18.00;;;;;;;;6309081;22;45284;-84
2023/09/06 03:58:53;;;;;;;;;20.67;19.67;;;;;;;;6308774;22;45290;-83
2023/09/06 04:01:19;;;;;;;;;18.00;17.33;;;;;;;;6308639;22;45244;-83
2023/09/06 04:03:46;;;;;;;;;20.33;17.00;;;;;;;;6307153;22;45988;-82
2023/09/06 04:06:11;;;;;;;;;17.67;17.67;;;;;;;;6307956;22;45291;-81
2023/09/06 04:08:38;;;;;;;;;19.00;15.33;;;;;;;;6312681;22;45132;-82
2023/09/06 04:11:03;;;;;;;;;17.67;17.33;;;;;;;;6313003;22;45256;-86
2023/09/06 04:13:29;;;;;;;;;24.33;19.33;;;;;;;;6311189;22;46165;-83
2023/09/06 04:15:54;;;;;;;;;19.33;17.00;;;;;;;;6308535;22;45172;-85
2023/09/06 04:18:19;;;;;;;;;18.33;17.33;;;;;;;;6280200;22;45453;-85
2023/09/06 04:20:46;;;;;;;;;18.67;18.00;;;;;;;;6280144;22;45876;-85
2023/09/06 04:23:16;;;;;;;;;18.67;17.00;;;;;;;;6308444;22;45361;-85
2023/09/06 04:25:41;;;;;;;;;16.67;16.67;;;;;;;;6308403;22;45156;-85
2023/09/06 04:28:19;;;;;;;;;18.00;17.33;;;;;;;;6280276;22;45263;-86
2023/09/06 04:30:47;;;;;;;;;16.67;16.67;;;;;;;;6302908;22;45446;-83
2023/09/06 04:33:14;;;;;;;;;18.00;18.00;;;;;;;;6276776;22;47173;-83
2023/09/06 04:35:43;;;;;;;;;21.33;18.67;;;;;;;;6304187;22;45413;-83
2023/09/06 04:38:26;;;;;;;;;19.33;17.67;;;;;;;;6305578;22;45335;-83
2023/09/06 04:40:54;;;;;;;;;20.00;17.67;;;;;;;;6306938;22;45380;-83
2023/09/06 04:43:19;;;;;;;;;15.67;14.67;;;;;;;;6277746;22;45537;-83
2023/09/06 04:45:46;;;;;;;;;22.33;20.00;;;;;;;;6279909;22;45192;-84
2023/09/06 04:48:12;;;;;;;;;20.33;17.67;;;;;;;;6307421;22;45216;-84
2023/09/06 04:50:40;;;;;;;;;20.00;18.00;;;;;;;;6307444;22;44781;-85
2023/09/06 04:53:07;;;;;;;;;19.00;19.00;;;;;;;;6306855;22;46141;-85
2023/09/06 04:55:35;;;;;;;;;22.33;18.67;;;;;;;;6278546;22;45327;-85
2023/09/06 04:58:00;;;;;;;;;19.00;16.00;;;;;;;;6306999;22;45664;-84
2023/09/06 05:00:30;;;;;;;;;18.67;18.00;;;;;;;;6308730;22;45279;-84
2023/09/06 05:02:56;;;;;;;;;22.33;16.67;;;;;;;;6308703;22;45307;-85
2023/09/06 05:05:21;;;;;;;;;17.33;17.00;;;;;;;;6308017;22;45260;-86
2023/09/06 05:07:46;;;;;;;;;18.67;15.67;;;;;;;;6281787;22;45285;-84
2023/09/06 05:10:12;;;;;;;;;18.67;18.33;;;;;;;;6307126;22;45360;-85
2023/09/06 05:12:37;;;;;;;;;19.33;16.00;;;;;;;;6280477;22;47148;-84
2023/09/06 05:15:04;;;;;;;;;17.67;16.67;;;;;;;;6286070;22;45564;-85
2023/09/06 05:17:29;;;;;;;;;19.33;19.00;;;;;;;;6314853;22;45409;-85
2023/09/06 05:19:54;;;;;;;;;20.00;17.33;;;;;;;;6314755;22;45584;-84
2023/09/06 05:22:19;;;;;;;;;20.00;20.00;;;;;;;;6313155;22;45274;-84
2023/09/06 05:24:45;;;;;;;;;19.33;17.67;;;;;;;;6281043;22;45256;-84
2023/09/06 05:27:11;;;;;;;;;19.00;18.00;;;;;;;;6310013;22;45232;-83
2023/09/06 05:29:36;;;;;;;;;17.33;15.67;;;;;;;;6309159;22;45244;-84
2023/09/06 05:32:01;;;;;;;;;23.00;20.67;;;;;;;;6310495;22;46112;-84
2023/09/06 05:34:29;;;;;;;;;24.00;17.67;;;;;;;;6308997;22;45367;-82
2023/09/06 05:36:54;;;;;;;;;22.00;19.33;;;;;;;;6308769;22;45198;-82
2023/09/06 05:39:20;;;;;;;;;19.33;18.00;;;;;;;;6308362;22;45498;-82
2023/09/06 05:41:46;;;;;;;;;19.00;17.67;;;;;;;;6280377;22;46921;-84
2023/09/06 05:44:11;;;;;;;;;23.33;21.67;;;;;;;;6308550;22;45259;-84
2023/09/06 05:46:36;;;;;;;;;26.00;21.33;;;;;;;;6310018;22;45334;-83
2023/09/06 05:49:02;;;;;;;;;24.67;20.33;;;;;;;;6309708;22;45227;-83
2023/09/06 05:51:27;;;;;;;;;21.33;21.33;;;;;;;;6282512;22;46152;-84
2023/09/06 05:53:52;;;;;;;;;17.00;15.33;;;;;;;;6280303;22;45271;-81
2023/09/06 05:56:17;;;;;;;;;18.33;17.33;;;;;;;;6309450;22;45229;-83
2023/09/06 05:58:43;;;;;;;;;20.67;19.00;;;;;;;;6280728;22;45986;-85
2023/09/06 06:01:08;;;;;;;;;22.33;21.00;;;;;;;;6280546;22;46846;-84
2023/09/06 06:03:36;;;;;;;;;23.67;20.67;;;;;;;;6307563;22;45370;-85
2023/09/06 06:06:01;;;;;;;;;21.67;21.33;;;;;;;;6307401;22;45319;-83
2023/09/06 06:08:26;;;;;;;;;25.33;22.00;;;;;;;;6307484;22;45382;-85
2023/09/06 06:10:51;;;;;;;;;25.67;21.67;;;;;;;;6307569;22;45520;-84
2023/09/06 06:13:17;;;;;;;;;21.67;20.67;;;;;;;;6308620;22;45288;-85
2023/09/06 06:15:42;;;;;;;;;23.00;21.67;;;;;;;;6280571;22;45290;-84
2023/09/06 06:18:07;;;;;;;;;26.33;22.67;;;;;;;;6280338;22;45964;-85
2023/09/06 06:20:32;;;;;;;;;25.33;24.00;;;;;;;;6308200;22;45322;-84
2023/09/06 06:22:58;;;;;;;;;23.00;21.67;;;;;;;;6308899;22;45220;-84
2023/09/06 06:25:24;;;;;;;;;21.00;21.00;;;;;;;;6308562;22;45240;-84
2023/09/06 06:27:51;;;;;;;;;18.00;16.00;;;;;;;;6308576;22;45265;-84
2023/09/06 06:30:18;;;;;;;;;20.67;16.00;;;;;;;;6308726;22;45288;-85
2023/09/06 06:32:43;;;;;;;;;18.67;14.33;;;;;;;;6309119;22;44762;-84
2023/09/06 06:35:11;;;;;;;;;17.00;14.33;;;;;;;;6309674;22;45443;-84
2023/09/06 06:37:37;;;;;;;;;15.33;15.00;;;;;;;;6310943;22;45477;-82
2023/09/06 06:40:05;;;;;;;;;15.00;15.00;;;;;;;;6310269;22;45263;-83
2023/09/06 06:42:31;;;;;;;;;19.67;15.67;;;;;;;;6283045;22;45664;-83
2023/09/06 06:44:56;;;;;;;;;13.33;13.33;;;;;;;;6313490;22;45271;-83
2023/09/06 06:47:21;;;;;;;;;17.00;16.00;;;;;;;;6313502;22;45404;-83
2023/09/06 06:49:49;;;;;;;;;15.67;15.00;;;;;;;;6312239;22;45375;-83
2023/09/06 06:52:14;;;;;;;;;13.67;13.00;;;;;;;;6285267;22;46032;-82
2023/09/06 06:54:40;;;;;;;;;21.00;16.00;;;;;;;;6310636;22;45200;-83
2023/09/06 06:57:05;;;;;;;;;14.33;14.33;;;;;;;;6304753;22;45342;-84
2023/09/06 06:59:30;;;;;;;;;17.33;15.33;;;;;;;;6282653;22;46029;-83
2023/09/06 07:01:55;;;;;;;;;14.67;13.00;;;;;;;;6309135;22;45527;-82
2023/09/06 07:04:21;;;;;;;;;15.00;14.00;;;;;;;;6308028;22;44664;-82
2023/09/06 07:06:46;;;;;;;;;14.67;13.33;;;;;;;;6308121;22;45405;-82
2023/09/06 07:09:11;;;;;;;;;16.67;15.33;;;;;;;;6279470;22;45318;-78
2023/09/06 07:11:37;;;;;;;;;14.33;13.33;;;;;;;;6307997;22;45285;-81
2023/09/06 07:14:02;;;;;;;;;14.25;13.25;;;;;;;;6279729;22;45295;-80
2023/09/06 07:16:28;;;;;;;;;16.50;14.00;;;;;;;;6280964;22;46959;-80
2023/09/06 07:18:53;;;;;;;;;13.75;12.00;;;;;;;;6308443;22;46096;-78
2023/09/06 07:21:18;;;;;;;;;14.25;13.25;;;;;;;;6308534;22;45165;-78
2023/09/06 07:23:44;;;;;;;;;11.75;10.75;;;;;;;;6281016;22;45201;-77
2023/09/06 07:26:09;;;;;;;;;13.50;13.25;;;;;;;;6309565;22;45137;-77
2023/09/06 07:28:36;;;;;;;;;18.00;14.50;;;;;;;;6309593;22;46261;-79
2023/09/06 07:31:01;;;;;;;;;17.50;13.75;;;;;;;;6281089;22;45331;-81
2023/09/06 07:33:27;;;;;;;;;15.25;13.25;;;;;;;;6309141;22;45374;-80
2023/09/06 07:35:52;;;;;;;;;15.50;13.00;;;;;;;;6308060;22;45418;-80
2023/09/06 07:38:18;;;;;;;;;11.25;11.25;;;;;;;;6280562;22;47553;-81
2023/09/06 07:40:43;;;;;;;;;13.25;11.25;;;;;;;;6309547;22;45235;-80
2023/09/06 07:43:08;;;;;;;;;11.75;11.75;;;;;;;;6280879;22;45396;-81
2023/09/06 07:45:33;;;;;;;;;15.25;13.50;;;;;;;;6309306;22;45259;-80
2023/09/06 07:48:01;;;;;;;;;13.75;11.00;;;;;;;;6280887;22;46932;-81
2023/09/06 07:50:26;;;;;;;;;14.00;12.50;;;;;;;;6280967;22;45731;-81
2023/09/06 07:52:51;;;;;;;;;13.50;13.00;;;;;;;;6281631;22;45291;-81
2023/09/06 07:55:16;;;;;;;;;13.00;12.50;;;;;;;;6309218;22;45223;-81
2023/09/06 07:57:41;;;;;;;;;13.75;12.00;;;;;;;;6281918;22;47382;-81
2023/09/06 08:00:07;;;;;;;;;13.75;13.00;;;;;;;;6309910;22;45304;-80
2023/09/06 08:02:32;;;;;;;;;13.75;12.00;;;;;;;;6311470;22;45255;-80
2023/09/06 08:04:57;;;;;;;;;11.25;11.25;;;;;;;;6309969;22;45271;-80
2023/09/06 08:07:23;;;;;;;;;15.25;12.25;;;;;;;;6310539;22;45890;-81
2023/09/06 08:09:49;;;;;;;;;16.50;14.50;;;;;;;;6309694;22;45143;-82
2023/09/06 08:12:14;;;;;;;;;15.00;12.75;;;;;;;;6310866;22;45146;-80
2023/09/06 08:14:41;;;;;;;;;13.50;12.00;;;;;;;;6309942;22;45149;-79
2023/09/06 08:17:07;;;;;;;;;11.25;10.00;;;;;;;;6309873;22;45295;-81
2023/09/06 08:19:33;;;;;;;;;15.25;12.25;;;;;;;;6308004;22;45196;-80
2023/09/06 08:21:59;;;;;;;;;13.00;13.00;;;;;;;;6309446;22;45101;-80
2023/09/06 08:24:24;;;;;;;;;11.50;11.50;;;;;;;;6308783;22;45232;-83
2023/09/06 08:26:49;;;;;;;;;18.75;14.00;;;;;;;;6309018;22;45429;-82
2023/09/06 08:29:15;;;;;;;;;11.75;11.75;;;;;;;;6281195;22;45328;-83
2023/09/06 08:31:40;;;;;;;;;15.50;13.25;;;;;;;;6309101;22;45219;-84
2023/09/06 08:34:05;;;;;;;;;15.00;12.00;;;;;;;;6308596;22;45294;-86
2023/09/06 08:36:30;;;;;;;;;10.75;10.25;;;;;;;;6308261;22;45819;-85
2023/09/06 08:38:56;;;;;;;;;13.00;9.50;;;;;;;;6310679;22;45392;-82
2023/09/06 08:41:21;;;;;;;;;14.75;11.00;;;;;;;;6308768;22;45358;-85
2023/09/06 08:43:46;;;;;;;;;10.75;10.50;;;;;;;;6307279;22;45689;-86
2023/09/06 08:46:16;;;;;;;;;14.50;11.75;;;;;;;;6307524;22;45304;-84
2023/09/06 08:48:42;;;;;;;;;10.20;9.40;;;;;;;;6308031;22;45248;-85
2023/09/06 08:51:11;;;;;;;;;10.20;9.00;;;;;;;;6309513;22;45390;-84
2023/09/06 08:53:36;;;;;;;;;13.00;9.80;;;;;;;;6308541;22;45255;-86
2023/09/06 08:56:03;;;;;;;;;9.75;9.75;;;;;;;;6310451;22;45270;-86
2023/09/06 08:58:29;;;;;;;;;13.40;10.80;;;;;;;;6309680;22;45250;-85
2023/09/06 09:00:55;;;;;;;;;14.00;8.80;;;;;;;;6281817;22;45140;-82
2023/09/06 09:03:20;;;;;;;;;11.00;9.60;;;;;;;;6308243;22;45483;-84
2023/09/06 09:05:45;;;;;;;;;13.50;11.25;;;;;;;;6307584;22;46042;-85
2023/09/06 09:08:11;;;;;;;;;11.00;10.25;;;;;;;;6307364;22;45279;-82
2023/09/06 09:10:36;;;;;;;;;9.50;9.50;;;;;;;;6307277;22;45133;-83
2023/09/06 09:13:01;;;;;;;;;11.75;10.00;;;;;;;;6306867;22;45457;-81
2023/09/06 09:15:29;;;;;;;;;13.50;11.00;;;;;;;;6308005;22;45453;-81
2023/09/06 09:17:54;;;;;;;;;14.80;9.60;;;;;;;;6308453;22;45279;-80
2023/09/06 09:20:19;;;;;;;;;9.75;9.00;;;;;;;;6278213;22;45284;-79
2023/09/06 09:22:45;;;;;;;;;9.50;7.75;;;;;;;;6310433;22;45569;-79
2023/09/06 09:25:23;;;;;;;;;17.00;11.75;;;;;;;;6308036;22;45337;-79
2023/09/06 09:27:51;;;;;;;;;14.20;8.60;;;;;;;;6305354;22;45360;-79
2023/09/06 09:30:18;;;;;;;;;11.00;8.20;;;;;;;;6306697;22;45215;-84
2023/09/06 09:32:43;;;;;;;;;12.20;9.80;;;;;;;;6278867;22;45397;-84
2023/09/06 09:35:12;;;;;;;;;24.00;21.50;;;;;;;;6306295;22;46755;-81
2023/09/06 09:37:41;;;;;;;;;16.20;15.60;;;;;;;;6305328;22;45335;-80
2023/09/06 09:40:20;;;;;;;;;14.00;11.00;;;;;;;;6306748;22;45168;-80
2023/09/06 09:42:52;;;;;;;;;12.60;12.60;;;;;;;;6309279;22;45514;-80
2023/09/06 09:45:19;;;;;;;;;10.40;9.40;;;;;;;;6306384;22;45245;-80
2023/09/06 09:47:44;;;;;;;;;11.40;10.20;;;;;;;;6280129;22;45220;-81
2023/09/06 09:50:10;;;;;;;;;24.25;23.00;;;;;;;;6276367;22;45347;-81
2023/09/06 09:52:36;;;;;;;;;13.20;7.40;;;;;;;;6307594;22;45404;-81
2023/09/06 09:55:02;;;;;;;;;10.75;7.00;;;;;;;;6278241;22;45806;-81
2023/09/06 09:57:28;;;;;;;;;11.60;10.40;;;;;;;;6305979;22;45554;-80
2023/09/06 09:59:54;;;;;;;;;14.60;12.00;;;;;;;;6306370;22;45347;-80
2023/09/06 10:02:20;;;;;;;;;13.20;12.60;;;;;;;;6307489;22;45158;-80
2023/09/06 10:04:46;;;;;;;;;11.80;11.40;;;;;;;;6307164;22;46481;-80
2023/09/06 10:07:14;;;;;;;;;8.60;8.40;;;;;;;;6308876;22;45204;-80
2023/09/06 10:09:39;;;;;;;;;9.20;9.00;;;;;;;;6306252;22;45491;-79
2023/09/06 10:12:07;;;;;;;;;9.75;9.00;;;;;;;;6308547;22;45357;-83
2023/09/06 10:14:33;;;;;;;;;8.80;7.00;;;;;;;;6308485;22;46981;-80
2023/09/06 10:16:58;;;;;;;;;8.50;8.50;;;;;;;;6310062;22;45208;-79
2023/09/06 10:19:24;;;;;;;;;8.00;8.00;;;;;;;;6280406;22;45237;-79
2023/09/06 10:21:49;;;;;;;;;11.00;11.00;;;;;;;;6309571;22;45280;-80
2023/09/06 10:24:18;;;;;;;;;9.00;8.00;;;;;;;;6309103;22;45174;-81
2023/09/06 10:26:45;;;;;;;;;9.40;7.60;;;;;;;;6309459;22;45617;-82
2023/09/06 10:29:10;;;;;;;;;13.60;13.40;;;;;;;;6309182;22;45236;-84
2023/09/06 10:31:45;;;;;;;;;12.50;11.75;;;;;;;;6281253;22;46141;-81
2023/09/06 10:34:12;;;;;;;;;11.60;11.40;;;;;;;;6306032;22;45604;-83
2023/09/06 10:36:58;;;;;;;;;6.80;6.80;;;;;;;;6307916;22;45245;-81
2023/09/06 10:39:25;;;;;;;;;8.40;8.00;;;;;;;;6281151;22;45281;-82
2023/09/06 10:42:09;;;;;;;;;11.20;8.40;;;;;;;;6281432;22;45301;-82
2023/09/06 10:44:58;;;;;;;;;10.60;10.60;;;;;;;;6306475;22;45255;-82
2023/09/06 10:47:29;;;;;;;;;21.00;21.00;;;;;;;;6307186;22;45331;-83
2023/09/06 10:50:15;;;;;;;;;10.60;10.60;;;;;;;;6307036;22;45223;-82
2023/09/06 10:52:51;;;;;;;;;11.80;10.60;;;;;;;;6307061;22;45300;-82
2023/09/06 10:55:18;;;;;;;;;11.60;11.20;;;;;;;;6306401;22;45357;-83
2023/09/06 10:58:06;;;;;;;;;14.60;11.40;;;;;;;;6306695;22;45227;-83
2023/09/06 11:00:36;;;;;;;;;15.20;12.40;;;;;;;;6289336;22;45315;-85
2023/09/06 11:03:07;;;;;;;;;12.00;10.00;;;;;;;;6306289;22;45443;-85
2023/09/06 11:05:35;;;;;;;;;9.20;8.20;;;;;;;;6308992;22;46287;-84
2023/09/06 11:08:00;;;;;;;;;10.60;9.60;;;;;;;;6309399;22;45225;-85
2023/09/06 11:10:26;;;;;;;;;9.00;9.00;;;;;;;;6280861;22;46050;-84
2023/09/06 11:12:55;;;;;;;;;6.60;6.60;;;;;;;;6308756;22;45691;-84
2023/09/06 11:15:20;;;;;;;;;8.80;7.40;;;;;;;;6307285;22;45243;-83
2023/09/06 11:17:45;;;;;;;;;10.50;10.50;;;;;;;;6309350;22;45295;-84
2023/09/06 11:20:12;;;;;;;;;10.50;9.25;;;;;;;;6309115;22;45346;-85
2023/09/06 11:22:37;;;;;;;;;9.00;9.00;;;;;;;;6311121;22;45228;-83
2023/09/06 11:25:14;;;;;;;;;9.00;9.00;;;;;;;;6281753;22;46887;-85
2023/09/06 11:27:39;;;;;;;;;10.00;9.20;;;;;;;;6310346;22;45161;-83
2023/09/06 11:30:15;;;;;;;;;15.00;13.00;;;;;;;;6311445;22;45183;-83
2023/09/06 11:32:41;;;;;;;;;8.00;7.00;;;;;;;;6308608;22;45223;-84
2023/09/06 11:35:08;;;;;;;;;10.75;9.50;;;;;;;;6303239;22;46156;-83
2023/09/06 11:37:37;;;;;;;;;9.20;9.20;;;;;;;;6310440;22;45254;-85
2023/09/06 11:40:09;;;;;;;;;10.60;9.40;;;;;;;;6308573;22;45307;-84
2023/09/06 11:42:34;;;;;;;;;9.20;9.00;;;;;;;;6283677;22;45288;-84
2023/09/06 11:45:00;;;;;;;;;10.50;9.00;;;;;;;;6280479;22;47286;-82
2023/09/06 11:47:27;;;;;;;;;7.00;7.00;;;;;;;;6307851;22;45281;-82
2023/09/06 11:49:55;;;;;;;;;8.40;8.40;;;;;;;;6308478;22;45244;-84
2023/09/06 11:52:23;;;;;;;;;10.00;9.00;;;;;;;;6281093;22;46047;-83
2023/09/06 11:54:50;;;;;;;;;9.40;9.40;;;;;;;;6309000;22;45290;-82
2023/09/06 11:57:26;;;;;;;;;9.00;8.20;;;;;;;;6308481;22;45243;-80
2023/09/06 11:59:52;;;;;;;;;11.00;10.20;;;;;;;;6308854;22;45308;-82
2023/09/06 12:02:19;;;;;;;;;7.20;7.20;;;;;;;;6309488;22;45389;-82
2023/09/06 12:04:52;;;;;;;;;8.00;7.80;;;;;;;;6308688;22;45277;-83
2023/09/06 12:07:23;;;;;;;;;7.60;7.60;;;;;;;;6309314;22;45283;-81
2023/09/06 12:09:48;;;;;;;;;9.20;8.00;;;;;;;;6309310;22;45338;-82
2023/09/06 12:12:16;;;;;;;;;8.00;7.75;;;;;;;;6308517;22;45472;-83
2023/09/06 12:14:42;;;;;;;;;5.40;5.40;;;;;;;;6309796;22;45301;-82
2023/09/06 12:17:07;;;;;;;;;7.20;7.20;;;;;;;;6310598;22;45318;-81
2023/09/06 12:19:33;;;;;;;;;8.00;7.00;;;;;;;;6310637;22;45277;-84
2023/09/06 12:21:59;;;;;;;;;8.50;8.50;;;;;;;;6310916;22;45331;-82
2023/09/06 12:24:24;;;;;;;;;8.00;8.00;;;;;;;;6309931;22;46843;-82
2023/09/06 12:26:49;;;;;;;;;6.00;6.00;;;;;;;;6310075;22;45098;-83
2023/09/06 12:29:14;;;;;;;;;8.75;8.75;;;;;;;;6308971;22;45129;-82
2023/09/06 12:31:40;;;;;;;;;8.50;8.50;;;;;;;;6280804;22;47265;-82
2023/09/06 12:34:06;;;;;;;;;5.00;5.00;;;;;;;;6307928;22;45877;-80
2023/09/06 12:36:31;;;;;;;;;7.20;7.20;;;;;;;;6308544;22;45280;-82
2023/09/06 12:38:56;;;;;;;;;6.75;6.75;;;;;;;;6306789;22;45169;-82
2023/09/06 12:41:22;;;;;;;;;7.25;7.25;;;;;;;;6307394;22;45480;-85
2023/09/06 12:43:47;;;;;;;;;6.75;6.75;;;;;;;;6308451;22;46459;-85
2023/09/06 12:46:12;;;;;;;;;9.00;7.00;;;;;;;;6308900;22;45232;-81
2023/09/06 12:48:37;;;;;;;;;7.25;7.25;;;;;;;;6312216;22;45094;-81
2023/09/06 12:51:04;;;;;;;;;6.75;6.75;;;;;;;;6311193;22;45602;-82
2023/09/06 12:53:30;;;;;;;;;8.20;7.40;;;;;;;;6309006;22;46145;-84
2023/09/06 12:55:55;;;;;;;;;11.50;7.50;;;;;;;;6281455;22;45233;-84
2023/09/06 12:58:20;;;;;;;;;6.50;6.50;;;;;;;;6309051;22;45573;-84
2023/09/06 13:00:46;;;;;;;;;6.75;6.75;;;;;;;;6309931;22;45381;-84
2023/09/06 13:03:11;;;;;;;;;6.20;6.20;;;;;;;;6309885;22;45854;-82
2023/09/06 13:05:40;;;;;;;;;7.00;7.00;;;;;;;;6312391;22;45269;-82
2023/09/06 13:08:05;;;;;;;;;9.60;9.00;;;;;;;;6309910;22;45299;-83
2023/09/06 13:10:31;;;;;;;;;6.50;6.50;;;;;;;;6311327;22;45149;-84
2023/09/06 13:12:56;;;;;;;;;6.50;6.50;;;;;;;;6312342;22;46368;-84
2023/09/06 13:15:22;;;;;;;;;6.50;6.50;;;;;;;;6311894;22;45189;-84
2023/09/06 13:17:47;;;;;;;;;11.50;8.00;;;;;;;;6312401;22;45138;-83
2023/09/06 13:20:12;;;;;;;;;9.25;9.25;;;;;;;;6309794;22;45224;-82
2023/09/06 13:22:38;;;;;;;;;9.50;9.00;;;;;;;;6308565;22;45214;-87
2023/09/06 13:25:06;;;;;;;;;6.25;6.25;;;;;;;;6308170;22;45558;-83
2023/09/06 13:27:32;;;;;;;;;7.40;7.20;;;;;;;;6280769;22;45322;-84
2023/09/06 13:29:57;;;;;;;;;8.60;8.40;;;;;;;;6308046;22;45459;-83
2023/09/06 13:32:24;;;;;;;;;7.75;6.50;;;;;;;;6309120;22;45302;-83
2023/09/06 13:34:51;;;;;;;;;7.00;5.80;;;;;;;;6308968;22;45220;-83
2023/09/06 13:37:16;;;;;;;;;8.60;8.60;;;;;;;;6310317;22;45128;-84
2023/09/06 13:39:42;;;;;;;;;7.50;7.25;;;;;;;;6282059;22;46213;-83
2023/09/06 13:42:08;;;;;;;;;8.20;8.20;;;;;;;;6309685;22;45258;-84
2023/09/06 13:44:35;;;;;;;;;10.00;8.75;;;;;;;;6309689;22;45138;-83
2023/09/06 13:47:01;;;;;;;;;9.20;8.60;;;;;;;;6308875;22;45668;-85
2023/09/06 13:49:26;;;;;;;;;9.40;8.00;;;;;;;;6308898;22;45303;-84
2023/09/06 13:51:51;;;;;;;;;7.75;7.00;;;;;;;;6309411;22;46010;-83
2023/09/06 13:54:16;;;;;;;;;9.00;8.50;;;;;;;;6308096;22;45216;-84
2023/09/06 13:56:42;;;;;;;;;7.75;7.75;;;;;;;;6309240;22;45207;-87
2023/09/06 13:59:07;;;;;;;;;7.25;7.25;;;;;;;;6280624;22;45590;-85
2023/09/06 14:01:32;;;;;;;;;7.25;7.00;;;;;;;;6310883;22;46382;-85
2023/09/06 14:03:58;;;;;;;;;7.00;7.00;;;;;;;;6312100;22;45270;-81
2023/09/06 14:06:23;;;;;;;;;10.00;8.00;;;;;;;;6308132;22;45156;-86
2023/09/06 14:08:48;;;;;;;;;8.00;5.75;;;;;;;;6310725;22;45379;-85
2023/09/06 14:11:15;;;;;;;;;8.25;8.25;;;;;;;;6310876;22;45196;-85
2023/09/06 14:13:40;;;;;;;;;9.00;7.00;;;;;;;;6310187;22;45291;-78
2023/09/06 14:16:06;;;;;;;;;8.50;8.50;;;;;;;;6310299;22;45195;-85
2023/09/06 14:18:32;;;;;;;;;10.40;6.60;;;;;;;;6310681;22;45160;-84
2023/09/06 14:20:57;;;;;;;;;7.25;7.00;;;;;;;;6282475;22;45313;-86
2023/09/06 14:23:23;;;;;;;;;7.25;6.00;;;;;;;;6282207;22;45372;-86
2023/09/06 14:25:49;;;;;;;;;8.80;8.00;;;;;;;;6311330;22;45243;-83
2023/09/06 14:28:14;;;;;;;;;6.25;6.00;;;;;;;;6311340;22;45158;-85
2023/09/06 14:30:43;;;;;;;;;6.00;6.00;;;;;;;;6281736;22;47901;-85
2023/09/06 14:33:09;;;;;;;;;7.00;6.40;;;;;;;;6309587;22;45285;-84
2023/09/06 14:35:40;;;;;;;;;6.75;6.00;;;;;;;;6308734;22;45412;-85
2023/09/06 14:38:06;;;;;;;;;7.40;7.40;;;;;;;;6309640;22;45383;-84
2023/09/06 14:40:35;;;;;;;;;8.40;8.20;;;;;;;;6309430;22;45946;-85
2023/09/06 14:43:00;;;;;;;;;6.40;6.40;;;;;;;;6311796;22;45388;-85
2023/09/06 14:45:26;;;;;;;;;5.25;5.25;;;;;;;;6311526;22;45210;-87
2023/09/06 14:47:51;;;;;;;;;7.75;7.75;;;;;;;;6311672;22;45171;-86
2023/09/06 14:50:16;;;;;;;;;7.25;5.25;;;;;;;;6281956;22;45452;-84
2023/09/06 14:52:42;;;;;;;;;7.00;6.25;;;;;;;;6282219;22;45940;-85
2023/09/06 14:55:07;;;;;;;;;8.50;7.00;;;;;;;;6310464;22;45239;-84
2023/09/06 14:57:32;;;;;;;;;9.25;7.25;;;;;;;;6286132;22;45430;-85
2023/09/06 14:59:58;;;;;;;;;6.25;6.25;;;;;;;;6285074;22;47524;-86
2023/09/06 15:02:23;;;;;;;;;7.75;7.75;;;;;;;;6311914;22;45177;-83
2023/09/06 15:04:48;;;;;;;;;9.00;7.50;;;;;;;;6312993;22;45149;-85
2023/09/06 15:07:14;;;;;;;;;7.00;6.00;;;;;;;;6311458;22;45161;-85
2023/09/06 15:09:40;;;;;;;;;7.80;7.00;;;;;;;;6309028;22;47456;-85
2023/09/06 15:12:06;;;;;;;;;7.25;6.00;;;;;;;;6310246;22;45287;-83
2023/09/06 15:14:31;;;;;;;;;6.25;5.50;;;;;;;;6310988;22;45142;-87
2023/09/06 15:16:56;;;;;;;;;9.00;7.50;;;;;;;;6310900;22;45448;-85
2023/09/06 15:19:21;;;;;;;;;7.00;6.00;;;;;;;;6281253;22;45553;-85
2023/09/06 15:21:46;;;;;;;;;7.00;6.25;;;;;;;;6310652;22;45341;-85
2023/09/06 15:24:12;;;;;;;;;7.75;7.75;;;;;;;;6310354;22;45286;-84
2023/09/06 15:26:37;;;;;;;;;8.50;6.00;;;;;;;;6309606;22;45242;-87
2023/09/06 15:29:02;;;;;;;;;7.00;7.00;;;;;;;;6309081;22;46422;-82
2023/09/06 15:31:29;;;;;;;;;4.25;4.25;;;;;;;;6309480;22;45215;-86
2023/09/06 15:33:54;;;;;;;;;8.00;8.00;;;;;;;;6308664;22;45294;-82
2023/09/06 15:36:19;;;;;;;;;8.00;7.25;;;;;;;;6309196;22;45325;-84
2023/09/06 15:38:44;;;;;;;;;7.00;6.25;;;;;;;;6281382;22;46306;-84
2023/09/06 15:41:17;;;;;;;;;7.00;5.25;;;;;;;;6309731;22;45295;-84
2023/09/06 15:43:42;;;;;;;;;6.20;4.80;;;;;;;;6308649;22;45291;-84
2023/09/06 15:46:07;;;;;;;;;4.00;4.00;;;;;;;;6309493;22;45377;-84
2023/09/06 15:48:33;;;;;;;;;3.75;3.75;;;;;;;;6309466;22;45322;-83
2023/09/06 15:50:58;;;;;;;;;4.00;4.00;;;;;;;;6312908;22;45438;-84
2023/09/06 15:53:23;;;;;;;;;4.00;4.00;;;;;;;;6311698;22;45196;-83
2023/09/06 15:55:48;;;;;;;;;3.00;3.00;;;;;;;;6308893;22;45287;-83
2023/09/06 15:58:13;;;;;;;;;5.25;4.50;;;;;;;;6309093;22;46293;-84
2023/09/06 16:00:39;;;;;;;;;2.50;2.50;;;;;;;;6309657;22;45283;-85
2023/09/06 16:03:04;;;;;;;;;2.25;2.25;;;;;;;;6309422;22;45189;-85
2023/09/06 16:05:29;;;;;;;;;3.00;2.00;;;;;;;;6308962;22;45851;-84
2023/09/06 16:07:55;;;;;;;;;4.00;4.00;;;;;;;;6308903;22;46716;-84
2023/09/06 16:10:20;;;;;;;;;4.25;4.25;;;;;;;;6309027;22;45278;-84
2023/09/06 16:12:46;;;;;;;;;2.00;2.00;;;;;;;;6309195;22;45236;-83
2023/09/06 16:15:11;;;;;;;;;2.75;2.75;;;;;;;;6308924;22;45331;-84
2023/09/06 16:17:36;;;;;;;;;1.00;1.00;;;;;;;;6309136;22;45548;-85
2023/09/06 16:20:02;;;;;;;;;2.00;2.00;;;;;;;;6279866;22;45263;-83
2023/09/06 16:22:27;;;;;;;;;2.75;2.75;;;;;;;;6281760;22;45746;-84
2023/09/06 16:24:52;;;;;;;;;2.25;2.00;;;;;;;;6280523;22;45192;-84
2023/09/06 16:27:18;;;;;;;;;2.50;2.50;;;;;;;;6305391;22;46280;-84
2023/09/06 16:29:43;;;;;;;;;2.00;2.00;;;;;;;;6310268;22;45181;-82
2023/09/06 16:32:09;;;;;;;;;5.25;2.75;;;;;;;;6307459;22;45090;-82
2023/09/06 16:34:35;;;;;;;;;1.80;1.80;;;;;;;;6307493;22;45502;-88
2023/09/06 16:37:03;;;;;;;;;1.50;1.50;;;;;;;;6308929;22;46139;-84
2023/09/06 16:39:29;;;;;;;;;1.60;1.60;;;;;;;;6308048;22;45470;-85
2023/09/06 16:41:54;;;;;;;;;2.00;2.00;;;;;;;;6307185;22;45609;-86
2023/09/06 16:44:19;;;;;;;;;1.75;1.75;;;;;;;;6308473;22;45256;-83
2023/09/06 16:46:44;;;;;;;;;3.00;3.00;;;;;;;;6309798;22;45401;-84
2023/09/06 16:49:10;;;;;;;;;2.50;2.25;;;;;;;;6311549;22;45238;-83
2023/09/06 16:51:35;;;;;;;;;3.00;3.00;;;;;;;;6310371;22;45251;-84
2023/09/06 16:54:00;;;;;;;;;2.00;2.00;;;;;;;;6308982;22;45457;-85
2023/09/06 16:56:25;;;;;;;;;3.00;3.00;;;;;;;;6308902;22;46330;-82
2023/09/06 16:58:50;;;;;;;;;2.50;2.50;;;;;;;;6308981;22;45157;-83
2023/09/06 17:01:16;;;;;;;;;1.00;1.00;;;;;;;;6308669;22;45613;-86
2023/09/06 17:03:41;;;;;;;;;2.00;2.00;;;;;;;;6307930;22;45204;-87
2023/09/06 17:06:07;;;;;;;;;2.00;2.00;;;;;;;;6309496;22;45334;-89
2023/09/06 17:08:33;;;;;;;;;4.20;2.40;;;;;;;;6309574;22;45160;-88
2023/09/06 17:10:59;;;;;;;;;2.00;2.00;;;;;;;;6311176;22;45228;-88
2023/09/06 17:13:24;;;;;;;;;3.00;2.00;;;;;;;;6311435;22;45393;-89
2023/09/06 17:15:50;;;;;;;;;4.00;3.25;;;;;;;;6309954;22;45186;-87
2023/09/06 17:18:15;;;;;;;;;1.50;1.50;;;;;;;;6309060;22;45291;-88
2023/09/06 17:20:40;;;;;;;;;3.00;3.00;;;;;;;;6309449;22;45409;-87
2023/09/06 17:23:06;;;;;;;;;2.75;2.75;;;;;;;;6308307;22;45406;-87
2023/09/06 17:25:33;;;;;;;;;1.50;1.00;;;;;;;;6309360;22;45867;-85
2023/09/06 17:27:58;;;;;;;;;2.00;2.00;;;;;;;;6308888;22;45298;-86
2023/09/06 17:30:24;;;;;;;;;3.25;2.25;;;;;;;;6311850;22;45270;-85
2023/09/06 17:33:13;;;;;;;;;4.00;4.00;;;;;;;;6283355;22;46456;-87
2023/09/06 17:35:42;;;;;;;;;3.20;3.20;;;;;;;;6287049;22;46867;-86
2023/09/06 17:38:11;;;;;;;;;3.00;3.00;;;;;;;;6311968;22;45235;-87
2023/09/06 17:40:38;;;;;;;;;1.00;0.40;;;;;;;;6284101;22;45198;-86
2023/09/06 17:43:04;;;;;;;;;3.00;3.00;;;;;;;;6311511;22;45361;-87
2023/09/06 17:45:30;;;;;;;;;3.00;2.80;;;;;;;;6281776;22;47057;-87
2023/09/06 17:47:56;;;;;;;;;4.25;3.00;;;;;;;;6308434;22;45149;-85
2023/09/06 17:50:22;;;;;;;;;3.40;3.40;;;;;;;;6309534;22;45235;-87
2023/09/06 17:52:47;;;;;;;;;5.00;5.00;;;;;;;;6280859;22;45893;-87
2023/09/06 17:55:13;;;;;;;;;4.00;4.00;;;;;;;;6308662;22;46040;-83
2023/09/06 17:57:41;;;;;;;;;2.40;2.20;;;;;;;;6307359;22;45227;-87
2023/09/06 18:00:15;;;;;;;;;3.20;3.20;;;;;;;;6309058;22;45236;-85